sensor_id;sensor_type;location;lat;lon;timestamp;pressure;altitude;pressure_sealevel;temperature;humidity
20620;BME280;10469;42.720;23.252;2022-07-29T00:01:16;95061.88;;;20.05;100.00
20620;BME280;10469;42.720;23.252;2022-07-29T00:03:42;95065.97;;;19.84;100.00
20620;BME280;10469;42.720;23.252;2022-07-29T00:06:07;95069.84;;;19.77;100.00
20620;BME280;10469;42.720;23.252;2022-07-29T00:08:33;95068.63;;;19.89;100.00
20620;BME280;10469;42.720;23.252;2022-07-29T00:10:58;95066.09;;;19.73;100.00
20620;BME280;10469;42.720;23.252;2022-07-29T00:13:24;95054.53;;;19.82;100.00
20620;BME280;10469;42.720;23.252;2022-07-29T00:15:49;95056.81;;;19.74;100.00
20620;BME280;10469;42.720;23.252;2022-07-29T00:18:14;95054.97;;;19.70;100.00
20620;BME280;10469;42.720;23.252;2022-07-29T00:20:40;95058.31;;;19.62;100.00
20620;BME280;10469;42.720;23.252;2022-07-29T00:23:05;95049.59;;;19.65;100.00
20620;BME280;10469;42.720;23.252;2022-07-29T00:25:31;95063.63;;;19.72;100.00
20620;BME280;10469;42.720;23.252;2022-07-29T00:27:56;95058.56;;;19.60;100.00
20620;BME280;10469;42.720;23.252;2022-07-29T00:30:22;95079.78;;;19.63;100.00
20620;BME280;10469;42.720;23.252;2022-07-29T00:32:47;95076.47;;;19.08;100.00
20620;BME280;10469;42.720;23.252;2022-07-29T00:35:13;95079.44;;;18.77;100.00
20620;BME280;10469;42.720;23.252;2022-07-29T00:37:57;95082.91;;;18.44;100.00
20620;BME280;10469;42.720;23.252;2022-07-29T00:40:22;95099.78;;;18.30;100.00
20620;BME280;10469;42.720;23.252;2022-07-29T00:42:50;95087.66;;;18.13;100.00
20620;BME280;10469;42.720;23.252;2022-07-29T00:45:16;95089.31;;;18.14;100.00
20620;BME280;10469;42.720;23.252;2022-07-29T00:47:42;95076.34;;;17.95;100.00
20620;BME280;10469;42.720;23.252;2022-07-29T00:50:09;95092.63;;;17.95;100.00
20620;BME280;10469;42.720;23.252;2022-07-29T00:52:37;95094.53;;;17.95;100.00
20620;BME280;10469;42.720;23.252;2022-07-29T00:55:05;95100.50;;;17.97;100.00
20620;BME280;10469;42.720;23.252;2022-07-29T00:57:31;95092.06;;;17.98;100.00
20620;BME280;10469;42.720;23.252;2022-07-29T00:59:57;95089.06;;;18.00;100.00
20620;BME280;10469;42.720;23.252;2022-07-29T01:02:23;95090.59;;;18.21;100.00
20620;BME280;10469;42.720;23.252;2022-07-29T01:04:48;95088.84;;;18.46;100.00
20620;BME280;10469;42.720;23.252;2022-07-29T01:07:14;95077.50;;;18.34;100.00
20620;BME280;10469;42.720;23.252;2022-07-29T01:09:40;95066.44;;;18.25;100.00
20620;BME280;10469;42.720;23.252;2022-07-29T01:12:07;95067.50;;;18.29;100.00
20620;BME280;10469;42.720;23.252;2022-07-29T01:14:34;95063.78;;;18.59;100.00
20620;BME280;10469;42.720;23.252;2022-07-29T01:17:07;95061.97;;;18.89;100.00
20620;BME280;10469;42.720;23.252;2022-07-29T01:30:12;95052.56;;;18.76;100.00
20620;BME280;10469;42.720;23.252;2022-07-29T01:32:39;95047.94;;;18.76;100.00
20620;BME280;10469;42.720;23.252;2022-07-29T01:35:07;95051.66;;;18.86;100.00
20620;BME280;10469;42.720;23.252;2022-07-29T01:37:57;95051.41;;;18.87;100.00
20620;BME280;10469;42.720;23.252;2022-07-29T01:43:04;95043.91;;;19.03;100.00
20620;BME280;10469;42.720;23.252;2022-07-29T01:45:41;95045.16;;;19.16;100.00
20620;BME280;10469;42.720;23.252;2022-07-29T01:48:24;95033.56;;;19.05;100.00
20620;BME280;10469;42.720;23.252;2022-07-29T01:51:01;95042.47;;;19.11;100.00
20620;BME280;10469;42.720;23.252;2022-07-29T01:53:37;95040.63;;;19.06;100.00
20620;BME280;10469;42.720;23.252;2022-07-29T01:56:06;95040.22;;;18.89;100.00
20620;BME280;10469;42.720;23.252;2022-07-29T01:58:34;95046.31;;;18.75;100.00
20620;BME280;10469;42.720;23.252;2022-07-29T02:01:02;95039.88;;;18.61;100.00
20620;BME280;10469;42.720;23.252;2022-07-29T02:03:30;95044.47;;;18.61;100.00
20620;BME280;10469;42.720;23.252;2022-07-29T02:05:58;95029.16;;;18.80;100.00
20620;BME280;10469;42.720;23.252;2022-07-29T02:08:25;95039.59;;;18.63;100.00
20620;BME280;10469;42.720;23.252;2022-07-29T02:10:53;95040.09;;;18.65;100.00
20620;BME280;10469;42.720;23.252;2022-07-29T02:13:21;95036.50;;;18.79;100.00
20620;BME280;10469;42.720;23.252;2022-07-29T02:15:50;95030.50;;;18.83;100.00
20620;BME280;10469;42.720;23.252;2022-07-29T02:18:18;95032.03;;;18.94;100.00
20620;BME280;10469;42.720;23.252;2022-07-29T02:20:47;95035.31;;;18.91;100.00
20620;BME280;10469;42.720;23.252;2022-07-29T02:23:15;95023.44;;;18.82;100.00
20620;BME280;10469;42.720;23.252;2022-07-29T02:25:43;95027.81;;;18.77;100.00
20620;BME280;10469;42.720;23.252;2022-07-29T02:28:10;95028.31;;;18.85;100.00
20620;BME280;10469;42.720;23.252;2022-07-29T02:30:40;95015.22;;;18.87;100.00
20620;BME280;10469;42.720;23.252;2022-07-29T02:33:08;95010.78;;;19.01;100.00
20620;BME280;10469;42.720;23.252;2022-07-29T02:35:35;94990.59;;;19.07;100.00
20620;BME280;10469;42.720;23.252;2022-07-29T02:38:02;95007.34;;;19.19;100.00
20620;BME280;10469;42.720;23.252;2022-07-29T02:40:48;95009.63;;;19.07;100.00
20620;BME280;10469;42.720;23.252;2022-07-29T02:43:17;95008.00;;;19.06;100.00
20620;BME280;10469;42.720;23.252;2022-07-29T02:45:44;95012.91;;;19.04;100.00
20620;BME280;10469;42.720;23.252;2022-07-29T02:48:15;95017.06;;;18.96;100.00
20620;BME280;10469;42.720;23.252;2022-07-29T02:50:49;95001.47;;;19.07;100.00
20620;BME280;10469;42.720;23.252;2022-07-29T02:53:22;95000.97;;;19.05;100.00
20620;BME280;10469;42.720;23.252;2022-07-29T02:56:01;95010.09;;;19.14;100.00
20620;BME280;10469;42.720;23.252;2022-07-29T02:58:34;95005.16;;;19.21;100.00
20620;BME280;10469;42.720;23.252;2022-07-29T03:01:06;95008.19;;;19.15;100.00
20620;BME280;10469;42.720;23.252;2022-07-29T03:03:36;94999.41;;;18.94;100.00
20620;BME280;10469;42.720;23.252;2022-07-29T03:06:03;95011.88;;;19.00;100.00
20620;BME280;10469;42.720;23.252;2022-07-29T03:08:30;95013.00;;;18.94;100.00
20620;BME280;10469;42.720;23.252;2022-07-29T03:10:57;95007.72;;;18.78;100.00
20620;BME280;10469;42.720;23.252;2022-07-29T03:13:23;95019.16;;;18.75;100.00
20620;BME280;10469;42.720;23.252;2022-07-29T03:15:50;95026.91;;;18.48;100.00
20620;BME280;10469;42.720;23.252;2022-07-29T03:18:16;95021.25;;;18.44;100.00
20620;BME280;10469;42.720;23.252;2022-07-29T03:20:42;95020.97;;;18.46;100.00
20620;BME280;10469;42.720;23.252;2022-07-29T03:23:08;95021.53;;;18.43;100.00
20620;BME280;10469;42.720;23.252;2022-07-29T03:25:34;95029.19;;;18.30;100.00
20620;BME280;10469;42.720;23.252;2022-07-29T03:28:00;95018.56;;;18.39;100.00
20620;BME280;10469;42.720;23.252;2022-07-29T03:30:25;95027.28;;;18.36;100.00
20620;BME280;10469;42.720;23.252;2022-07-29T03:32:52;95033.81;;;18.30;100.00
20620;BME280;10469;42.720;23.252;2022-07-29T03:35:19;95021.53;;;18.43;100.00
20620;BME280;10469;42.720;23.252;2022-07-29T03:37:45;95039.38;;;18.54;100.00
20620;BME280;10469;42.720;23.252;2022-07-29T03:40:14;95023.59;;;18.56;100.00
20620;BME280;10469;42.720;23.252;2022-07-29T03:42:42;95024.88;;;18.69;100.00
20620;BME280;10469;42.720;23.252;2022-07-29T03:45:11;95029.53;;;18.63;100.00
20620;BME280;10469;42.720;23.252;2022-07-29T03:47:40;95035.59;;;18.89;100.00
20620;BME280;10469;42.720;23.252;2022-07-29T03:50:08;95029.47;;;18.78;100.00
20620;BME280;10469;42.720;23.252;2022-07-29T03:52:35;95042.47;;;18.37;100.00
20620;BME280;10469;42.720;23.252;2022-07-29T03:55:02;95043.00;;;18.39;100.00
20620;BME280;10469;42.720;23.252;2022-07-29T03:57:30;95043.06;;;18.73;100.00
20620;BME280;10469;42.720;23.252;2022-07-29T03:59:57;95042.25;;;18.73;100.00
20620;BME280;10469;42.720;23.252;2022-07-29T04:02:23;95045.97;;;18.87;100.00
20620;BME280;10469;42.720;23.252;2022-07-29T04:04:48;95039.44;;;19.17;100.00
20620;BME280;10469;42.720;23.252;2022-07-29T04:07:15;95024.22;;;19.16;100.00
20620;BME280;10469;42.720;23.252;2022-07-29T04:09:41;95038.16;;;18.75;100.00
20620;BME280;10469;42.720;23.252;2022-07-29T04:12:07;95040.69;;;19.30;100.00
20620;BME280;10469;42.720;23.252;2022-07-29T04:14:33;95034.19;;;19.79;100.00
20620;BME280;10469;42.720;23.252;2022-07-29T04:17:03;95027.53;;;19.66;100.00
20620;BME280;10469;42.720;23.252;2022-07-29T04:19:29;95013.34;;;19.69;100.00
20620;BME280;10469;42.720;23.252;2022-07-29T04:21:55;95024.59;;;19.82;100.00
20620;BME280;10469;42.720;23.252;2022-07-29T04:24:20;95033.06;;;20.04;100.00
20620;BME280;10469;42.720;23.252;2022-07-29T04:26:46;95027.22;;;20.53;100.00
20620;BME280;10469;42.720;23.252;2022-07-29T04:29:12;95024.38;;;20.40;100.00
20620;BME280;10469;42.720;23.252;2022-07-29T04:31:39;95034.09;;;20.08;100.00
20620;BME280;10469;42.720;23.252;2022-07-29T04:34:05;95031.00;;;20.15;100.00
20620;BME280;10469;42.720;23.252;2022-07-29T04:36:30;95037.84;;;20.12;100.00
20620;BME280;10469;42.720;23.252;2022-07-29T04:38:56;95024.81;;;20.09;100.00
20620;BME280;10469;42.720;23.252;2022-07-29T04:41:21;95041.22;;;20.04;100.00
20620;BME280;10469;42.720;23.252;2022-07-29T04:43:47;95036.31;;;19.82;100.00
20620;BME280;10469;42.720;23.252;2022-07-29T04:46:13;95044.13;;;19.89;100.00
20620;BME280;10469;42.720;23.252;2022-07-29T04:48:38;95046.03;;;20.12;100.00
20620;BME280;10469;42.720;23.252;2022-07-29T04:51:03;95043.16;;;20.22;100.00
20620;BME280;10469;42.720;23.252;2022-07-29T04:53:29;95054.34;;;20.21;100.00
20620;BME280;10469;42.720;23.252;2022-07-29T04:55:55;95055.38;;;20.44;100.00
20620;BME280;10469;42.720;23.252;2022-07-29T04:58:20;95042.16;;;20.56;100.00
20620;BME280;10469;42.720;23.252;2022-07-29T05:00:48;95044.06;;;20.74;100.00
20620;BME280;10469;42.720;23.252;2022-07-29T05:03:13;95048.50;;;20.46;100.00
20620;BME280;10469;42.720;23.252;2022-07-29T05:05:39;95042.72;;;20.34;100.00
20620;BME280;10469;42.720;23.252;2022-07-29T05:08:06;95040.03;;;20.53;100.00
20620;BME280;10469;42.720;23.252;2022-07-29T05:10:31;95041.94;;;21.04;100.00
20620;BME280;10469;42.720;23.252;2022-07-29T05:12:57;95045.28;;;21.15;100.00
20620;BME280;10469;42.720;23.252;2022-07-29T05:15:23;95054.91;;;21.12;100.00
20620;BME280;10469;42.720;23.252;2022-07-29T05:17:48;95049.78;;;21.24;100.00
20620;BME280;10469;42.720;23.252;2022-07-29T05:20:14;95036.31;;;21.47;100.00
20620;BME280;10469;42.720;23.252;2022-07-29T05:22:39;95052.88;;;21.18;100.00
20620;BME280;10469;42.720;23.252;2022-07-29T05:25:05;95042.69;;;21.56;100.00
20620;BME280;10469;42.720;23.252;2022-07-29T05:27:30;95046.31;;;21.19;100.00
20620;BME280;10469;42.720;23.252;2022-07-29T05:42:35;95052.50;;;21.24;100.00
20620;BME280;10469;42.720;23.252;2022-07-29T05:45:01;95065.97;;;21.02;100.00
20620;BME280;10469;42.720;23.252;2022-07-29T05:47:27;95061.78;;;20.91;100.00
20620;BME280;10469;42.720;23.252;2022-07-29T05:49:53;95066.88;;;21.76;100.00
20620;BME280;10469;42.720;23.252;2022-07-29T05:52:19;95058.38;;;21.78;100.00
20620;BME280;10469;42.720;23.252;2022-07-29T05:54:44;95057.16;;;22.12;100.00
20620;BME280;10469;42.720;23.252;2022-07-29T05:57:20;95063.13;;;22.27;100.00
20620;BME280;10469;42.720;23.252;2022-07-29T05:59:47;95054.31;;;22.31;100.00
20620;BME280;10469;42.720;23.252;2022-07-29T06:02:13;95058.06;;;22.35;100.00
20620;BME280;10469;42.720;23.252;2022-07-29T06:04:38;95070.38;;;22.46;100.00
20620;BME280;10469;42.720;23.252;2022-07-29T06:07:04;95065.69;;;22.96;100.00
20620;BME280;10469;42.720;23.252;2022-07-29T06:09:30;95059.94;;;23.51;100.00
20620;BME280;10469;42.720;23.252;2022-07-29T06:11:55;95054.19;;;23.08;100.00
20620;BME280;10469;42.720;23.252;2022-07-29T06:14:21;95051.09;;;23.86;100.00
20620;BME280;10469;42.720;23.252;2022-07-29T06:16:46;95061.94;;;24.48;100.00
20620;BME280;10469;42.720;23.252;2022-07-29T06:19:12;95058.13;;;24.84;100.00
20620;BME280;10469;42.720;23.252;2022-07-29T06:21:42;95049.66;;;25.49;100.00
20620;BME280;10469;42.720;23.252;2022-07-29T06:24:09;95056.81;;;25.97;100.00
20620;BME280;10469;42.720;23.252;2022-07-29T06:26:35;95052.63;;;26.80;100.00
20620;BME280;10469;42.720;23.252;2022-07-29T06:29:00;95045.97;;;27.02;100.00
20620;BME280;10469;42.720;23.252;2022-07-29T06:31:26;95040.78;;;28.49;100.00
20620;BME280;10469;42.720;23.252;2022-07-29T06:33:51;95053.84;;;26.91;100.00
20620;BME280;10469;42.720;23.252;2022-07-29T06:36:18;95044.47;;;28.16;100.00
20620;BME280;10469;42.720;23.252;2022-07-29T06:38:43;95037.66;;;29.71;94.41
20620;BME280;10469;42.720;23.252;2022-07-29T06:41:08;95037.63;;;27.32;100.00
20620;BME280;10469;42.720;23.252;2022-07-29T06:43:41;95038.84;;;27.67;100.00
20620;BME280;10469;42.720;23.252;2022-07-29T06:46:09;95035.16;;;28.58;100.00
20620;BME280;10469;42.720;23.252;2022-07-29T06:48:34;95029.16;;;28.68;99.54
20620;BME280;10469;42.720;23.252;2022-07-29T06:51:02;95031.28;;;30.66;88.13
20620;BME280;10469;42.720;23.252;2022-07-29T06:53:28;95039.22;;;29.29;96.66
20620;BME280;10469;42.720;23.252;2022-07-29T06:55:54;95033.00;;;29.60;92.96
20620;BME280;10469;42.720;23.252;2022-07-29T06:58:20;95029.44;;;27.56;100.00
20620;BME280;10469;42.720;23.252;2022-07-29T07:00:48;95026.88;;;28.09;100.00
20620;BME280;10469;42.720;23.252;2022-07-29T07:03:15;95031.53;;;29.50;95.98
20620;BME280;10469;42.720;23.252;2022-07-29T07:05:40;95024.72;;;30.39;82.35
20620;BME280;10469;42.720;23.252;2022-07-29T07:08:06;95013.44;;;31.80;70.66
20620;BME280;10469;42.720;23.252;2022-07-29T07:10:32;95015.34;;;32.44;61.61
20620;BME280;10469;42.720;23.252;2022-07-29T07:12:59;95013.94;;;34.26;51.81
20620;BME280;10469;42.720;23.252;2022-07-29T07:15:24;95002.97;;;33.25;51.70
20620;BME280;10469;42.720;23.252;2022-07-29T07:17:50;95015.34;;;32.71;55.11
20620;BME280;10469;42.720;23.252;2022-07-29T07:20:16;95013.66;;;33.94;50.78
20620;BME280;10469;42.720;23.252;2022-07-29T07:22:42;95010.44;;;34.95;47.30
20620;BME280;10469;42.720;23.252;2022-07-29T07:25:08;95013.09;;;34.18;47.35
20620;BME280;10469;42.720;23.252;2022-07-29T07:27:34;95019.94;;;35.63;45.92
20620;BME280;10469;42.720;23.252;2022-07-29T07:29:59;95015.78;;;34.56;47.18
20620;BME280;10469;42.720;23.252;2022-07-29T07:32:25;95001.56;;;34.72;46.03
20620;BME280;10469;42.720;23.252;2022-07-29T07:34:50;95000.44;;;35.67;42.93
20620;BME280;10469;42.720;23.252;2022-07-29T07:37:16;95008.22;;;34.56;44.63
20620;BME280;10469;42.720;23.252;2022-07-29T07:39:42;95012.28;;;34.18;44.52
20620;BME280;10469;42.720;23.252;2022-07-29T07:42:07;95000.44;;;34.25;44.88
20620;BME280;10469;42.720;23.252;2022-07-29T07:44:33;95021.53;;;35.64;41.76
20620;BME280;10469;42.720;23.252;2022-07-29T07:46:58;95009.06;;;35.33;42.10
20620;BME280;10469;42.720;23.252;2022-07-29T07:49:24;95008.38;;;35.54;40.83
20620;BME280;10469;42.720;23.252;2022-07-29T07:51:49;94998.50;;;36.21;39.65
20620;BME280;10469;42.720;23.252;2022-07-29T07:54:15;94984.47;;;36.96;39.01
20620;BME280;10469;42.720;23.252;2022-07-29T07:56:40;95000.22;;;35.13;41.33
20620;BME280;10469;42.720;23.252;2022-07-29T07:59:06;94997.00;;;35.04;42.18
20620;BME280;10469;42.720;23.252;2022-07-29T08:01:31;94990.53;;;36.48;39.33
20620;BME280;10469;42.720;23.252;2022-07-29T08:03:57;94992.06;;;35.81;40.56
20620;BME280;10469;42.720;23.252;2022-07-29T08:06:22;95004.28;;;34.09;42.45
20620;BME280;10469;42.720;23.252;2022-07-29T08:08:50;94993.28;;;33.45;44.78
20620;BME280;10469;42.720;23.252;2022-07-29T08:11:15;94995.44;;;32.65;46.89
20620;BME280;10469;42.720;23.252;2022-07-29T08:13:42;94992.34;;;34.09;44.66
20620;BME280;10469;42.720;23.252;2022-07-29T08:16:08;94999.69;;;34.90;41.83
20620;BME280;10469;42.720;23.252;2022-07-29T08:18:39;94994.91;;;33.50;44.75
20620;BME280;10469;42.720;23.252;2022-07-29T08:21:04;94987.13;;;34.52;43.85
20620;BME280;10469;42.720;23.252;2022-07-29T08:23:30;94997.13;;;35.40;42.27
20620;BME280;10469;42.720;23.252;2022-07-29T08:26:04;94988.56;;;36.27;39.77
20620;BME280;10469;42.720;23.252;2022-07-29T08:28:30;94993.91;;;37.45;37.66
20620;BME280;10469;42.720;23.252;2022-07-29T08:30:55;94990.91;;;36.18;38.91
20620;BME280;10469;42.720;23.252;2022-07-29T08:33:21;94992.28;;;35.15;40.46
20620;BME280;10469;42.720;23.252;2022-07-29T08:35:46;94986.94;;;36.05;39.25
20620;BME280;10469;42.720;23.252;2022-07-29T08:38:12;94987.91;;;34.52;42.14
20620;BME280;10469;42.720;23.252;2022-07-29T08:40:37;94983.34;;;36.54;39.02
20620;BME280;10469;42.720;23.252;2022-07-29T08:43:07;94984.94;;;36.34;38.27
20620;BME280;10469;42.720;23.252;2022-07-29T08:45:41;94991.09;;;34.54;41.60
20620;BME280;10469;42.720;23.252;2022-07-29T08:48:08;94988.97;;;34.95;41.06
20620;BME280;10469;42.720;23.252;2022-07-29T08:50:35;94980.56;;;36.01;38.79
20620;BME280;10469;42.720;23.252;2022-07-29T08:53:02;94975.78;;;36.08;38.58
20620;BME280;10469;42.720;23.252;2022-07-29T08:55:28;94983.34;;;36.29;37.98
20620;BME280;10469;42.720;23.252;2022-07-29T08:57:54;94973.34;;;36.60;37.94
20620;BME280;10469;42.720;23.252;2022-07-29T09:00:21;94982.41;;;34.59;40.26
20620;BME280;10469;42.720;23.252;2022-07-29T09:02:51;94971.38;;;36.43;36.94
20620;BME280;10469;42.720;23.252;2022-07-29T09:05:20;94968.53;;;35.64;38.62
20620;BME280;10469;42.720;23.252;2022-07-29T09:07:47;94970.03;;;35.33;38.68
20620;BME280;10469;42.720;23.252;2022-07-29T09:10:13;94964.09;;;36.99;36.78
20620;BME280;10469;42.720;23.252;2022-07-29T09:12:39;94962.22;;;34.77;39.07
20620;BME280;10469;42.720;23.252;2022-07-29T09:15:05;94963.66;;;35.36;38.87
20620;BME280;10469;42.720;23.252;2022-07-29T09:17:44;94960.97;;;36.61;36.95
20620;BME280;10469;42.720;23.252;2022-07-29T09:20:13;94957.72;;;36.99;36.54
20620;BME280;10469;42.720;23.252;2022-07-29T09:22:39;94958.19;;;36.65;36.80
20620;BME280;10469;42.720;23.252;2022-07-29T09:25:05;94952.81;;;35.06;38.67
20620;BME280;10469;42.720;23.252;2022-07-29T09:27:30;94957.38;;;35.75;37.62
20620;BME280;10469;42.720;23.252;2022-07-29T09:30:05;94957.00;;;35.62;37.99
20620;BME280;10469;42.720;23.252;2022-07-29T09:32:32;94951.34;;;35.41;38.22
20620;BME280;10469;42.720;23.252;2022-07-29T09:35:18;94952.47;;;37.85;34.40
20620;BME280;10469;42.720;23.252;2022-07-29T09:37:44;94963.22;;;34.47;38.55
20620;BME280;10469;42.720;23.252;2022-07-29T09:42:46;94960.88;;;35.33;37.10
20620;BME280;10469;42.720;23.252;2022-07-29T09:45:13;94946.63;;;35.95;36.12
20620;BME280;10469;42.720;23.252;2022-07-29T09:47:50;94943.16;;;37.36;33.82
20620;BME280;10469;42.720;23.252;2022-07-29T09:50:16;94944.53;;;38.28;32.81
20620;BME280;10469;42.720;23.252;2022-07-29T09:52:49;94935.16;;;37.41;32.58
20620;BME280;10469;42.720;23.252;2022-07-29T09:55:16;94933.00;;;35.43;35.87
20620;BME280;10469;42.720;23.252;2022-07-29T09:57:42;94928.28;;;36.55;33.91
20620;BME280;10469;42.720;23.252;2022-07-29T10:02:36;94917.91;;;36.59;33.63
20620;BME280;10469;42.720;23.252;2022-07-29T10:05:05;94924.84;;;37.94;32.05
20620;BME280;10469;42.720;23.252;2022-07-29T10:10:11;94912.31;;;36.62;34.30
20620;BME280;10469;42.720;23.252;2022-07-29T10:13:06;94906.75;;;35.66;35.33
20620;BME280;10469;42.720;23.252;2022-07-29T10:15:34;94921.19;;;37.41;33.21
20620;BME280;10469;42.720;23.252;2022-07-29T10:18:04;94908.75;;;36.33;35.19
20620;BME280;10469;42.720;23.252;2022-07-29T10:20:31;94902.59;;;37.73;32.74
20620;BME280;10469;42.720;23.252;2022-07-29T10:22:56;94895.41;;;36.91;34.24
20620;BME280;10469;42.720;23.252;2022-07-29T10:25:23;94895.94;;;36.64;33.48
20620;BME280;10469;42.720;23.252;2022-07-29T10:27:50;94871.34;;;37.78;32.37
20620;BME280;10469;42.720;23.252;2022-07-29T10:30:20;94897.19;;;35.53;35.02
20620;BME280;10469;42.720;23.252;2022-07-29T10:38:07;94886.31;;;34.98;35.17
20620;BME280;10469;42.720;23.252;2022-07-29T10:40:48;94872.78;;;35.03;36.67
20620;BME280;10469;42.720;23.252;2022-07-29T10:43:36;94872.38;;;34.98;36.08
20620;BME280;10469;42.720;23.252;2022-07-29T10:46:03;94879.59;;;36.52;34.48
20620;BME280;10469;42.720;23.252;2022-07-29T10:48:29;94884.03;;;35.92;34.97
20620;BME280;10469;42.720;23.252;2022-07-29T10:53:23;94865.50;;;36.88;34.05
20620;BME280;10469;42.720;23.252;2022-07-29T10:55:50;94864.56;;;37.20;32.82
20620;BME280;10469;42.720;23.252;2022-07-29T11:00:46;94854.38;;;36.81;32.74
20620;BME280;10469;42.720;23.252;2022-07-29T11:03:43;94851.59;;;36.74;34.03
20620;BME280;10469;42.720;23.252;2022-07-29T11:06:11;94838.06;;;37.38;32.12
20620;BME280;10469;42.720;23.252;2022-07-29T11:08:36;94840.75;;;36.90;32.71
20620;BME280;10469;42.720;23.252;2022-07-29T11:13:52;94831.38;;;37.22;32.28
20620;BME280;10469;42.720;23.252;2022-07-29T11:16:20;94839.94;;;34.50;35.69
20620;BME280;10469;42.720;23.252;2022-07-29T11:21:45;94836.34;;;34.50;37.07
20620;BME280;10469;42.720;23.252;2022-07-29T11:24:22;94837.16;;;33.88;37.38
20620;BME280;10469;42.720;23.252;2022-07-29T11:29:39;94823.84;;;36.13;34.43
20620;BME280;10469;42.720;23.252;2022-07-29T11:32:11;94840.47;;;34.88;36.35
20620;BME280;10469;42.720;23.252;2022-07-29T11:34:37;94836.25;;;34.35;36.38
20620;BME280;10469;42.720;23.252;2022-07-29T11:47:26;94814.91;;;33.88;37.39
20620;BME280;10469;42.720;23.252;2022-07-29T11:49:53;94815.94;;;34.28;37.51
20620;BME280;10469;42.720;23.252;2022-07-29T11:52:20;94808.03;;;33.71;37.98
20620;BME280;10469;42.720;23.252;2022-07-29T11:54:48;94813.28;;;32.57;39.53
20620;BME280;10469;42.720;23.252;2022-07-29T11:57:18;94793.66;;;32.77;39.83
20620;BME280;10469;42.720;23.252;2022-07-29T11:59:46;94805.91;;;32.08;40.72
20620;BME280;10469;42.720;23.252;2022-07-29T12:02:14;94815.56;;;32.18;41.30
20620;BME280;10469;42.720;23.252;2022-07-29T12:04:53;94817.97;;;31.66;42.08
20620;BME280;10469;42.720;23.252;2022-07-29T12:07:30;94806.13;;;31.69;42.30
20620;BME280;10469;42.720;23.252;2022-07-29T12:09:55;94807.50;;;32.09;41.36
20620;BME280;10469;42.720;23.252;2022-07-29T12:12:21;94800.31;;;32.05;42.38
20620;BME280;10469;42.720;23.252;2022-07-29T12:14:48;94799.75;;;31.65;42.66
20620;BME280;10469;42.720;23.252;2022-07-29T12:19:56;94806.34;;;31.31;42.75
20620;BME280;10469;42.720;23.252;2022-07-29T12:24:55;94802.81;;;31.60;43.63
20620;BME280;10469;42.720;23.252;2022-07-29T12:27:21;94822.59;;;31.59;43.25
20620;BME280;10469;42.720;23.252;2022-07-29T12:30:00;94814.78;;;31.18;43.40
20620;BME280;10469;42.720;23.252;2022-07-29T12:35:04;94804.44;;;31.38;43.50
20620;BME280;10469;42.720;23.252;2022-07-29T12:37:32;94795.50;;;31.26;43.47
20620;BME280;10469;42.720;23.252;2022-07-29T12:39:58;94787.94;;;31.72;42.21
20620;BME280;10469;42.720;23.252;2022-07-29T12:42:24;94784.41;;;32.32;41.72
20620;BME280;10469;42.720;23.252;2022-07-29T12:44:50;94775.03;;;32.10;41.19
20620;BME280;10469;42.720;23.252;2022-07-29T12:47:17;94795.47;;;31.71;40.91
20620;BME280;10469;42.720;23.252;2022-07-29T12:49:44;94775.53;;;31.89;41.00
20620;BME280;10469;42.720;23.252;2022-07-29T12:52:39;94778.81;;;31.98;40.71
20620;BME280;10469;42.720;23.252;2022-07-29T12:55:05;94767.03;;;31.52;41.07
20620;BME280;10469;42.720;23.252;2022-07-29T12:57:30;94784.31;;;31.68;41.38
20620;BME280;10469;42.720;23.252;2022-07-29T13:02:28;94768.00;;;31.63;42.13
20620;BME280;10469;42.720;23.252;2022-07-29T13:04:58;94758.84;;;31.85;42.54
20620;BME280;10469;42.720;23.252;2022-07-29T13:07:26;94766.81;;;32.20;41.62
20620;BME280;10469;42.720;23.252;2022-07-29T13:09:53;94763.38;;;31.97;40.87
20620;BME280;10469;42.720;23.252;2022-07-29T13:12:19;94759.81;;;31.70;40.79
20620;BME280;10469;42.720;23.252;2022-07-29T13:14:49;94769.66;;;31.67;42.20
20620;BME280;10469;42.720;23.252;2022-07-29T13:17:22;94758.06;;;31.32;42.46
20620;BME280;10469;42.720;23.252;2022-07-29T13:19:53;94759.09;;;31.77;41.38
20620;BME280;10469;42.720;23.252;2022-07-29T13:22:29;94756.13;;;31.89;42.07
20620;BME280;10469;42.720;23.252;2022-07-29T13:24:59;94749.41;;;31.37;42.12
20620;BME280;10469;42.720;23.252;2022-07-29T13:27:29;94759.47;;;31.75;42.21
20620;BME280;10469;42.720;23.252;2022-07-29T13:29:56;94751.16;;;31.75;42.60
20620;BME280;10469;42.720;23.252;2022-07-29T13:32:23;94742.50;;;31.80;42.49
20620;BME280;10469;42.720;23.252;2022-07-29T13:34:49;94743.53;;;31.68;41.97
20620;BME280;10469;42.720;23.252;2022-07-29T13:37:15;94726.25;;;31.79;42.18
20620;BME280;10469;42.720;23.252;2022-07-29T13:39:42;94719.25;;;32.18;41.61
20620;BME280;10469;42.720;23.252;2022-07-29T13:42:08;94717.38;;;32.30;40.75
20620;BME280;10469;42.720;23.252;2022-07-29T13:44:34;94717.06;;;32.01;41.18
20620;BME280;10469;42.720;23.252;2022-07-29T13:47:00;94734.81;;;32.27;41.49
20620;BME280;10469;42.720;23.252;2022-07-29T13:49:26;94724.78;;;31.85;41.71
20620;BME280;10469;42.720;23.252;2022-07-29T13:51:52;94736.19;;;31.80;42.42
20620;BME280;10469;42.720;23.252;2022-07-29T13:54:17;94733.22;;;31.65;43.13
20620;BME280;10469;42.720;23.252;2022-07-29T13:56:43;94739.25;;;32.01;42.82
20620;BME280;10469;42.720;23.252;2022-07-29T13:59:08;94720.22;;;31.43;42.68
20620;BME280;10469;42.720;23.252;2022-07-29T14:01:34;94728.41;;;31.62;42.87